Time;durP1;ratioP1;P1;durP2;ratioP2;P2;SDS_P1;SDS_P2;PMS_P1;PMS_P2;Temp;Humidity;BMP_temperature;BMP_pressure;BME280_temperature;BME280_humidity;BME280_pressure;Samples;Min_cycle;Max_cycle;Signal;HPM_P1;HPM_P2
2021/03/05 00:01:43;;;;;;;11.90;8.20;;;;;;;;;;4973036;28;20240;-79
2021/03/05 00:04:09;;;;;;;13.45;9.63;;;;;;;;;;4964038;28;20201;-78
2021/03/05 00:06:35;;;;;;;16.05;9.65;;;;;;;;;;4964891;28;20187;-79
2021/03/05 00:09:01;;;;;;;13.45;9.73;;;;;;;;;;4963505;29;20596;-80
2021/03/05 00:11:27;;;;;;;11.80;8.63;;;;;;;;;;4964490;28;20192;-80
2021/03/05 00:13:53;;;;;;;12.70;8.32;;;;;;;;;;4964092;28;20215;-81
2021/03/05 00:16:19;;;;;;;11.07;7.97;;;;;;;;;;4964339;28;20243;-82
2021/03/05 00:18:45;;;;;;;10.68;7.75;;;;;;;;;;4979534;28;20439;-80
2021/03/05 00:21:11;;;;;;;10.57;7.50;;;;;;;;;;4965468;28;20180;-80
2021/03/05 00:23:37;;;;;;;9.95;7.65;;;;;;;;;;4979176;28;20215;-79
2021/03/05 00:26:03;;;;;;;10.50;7.10;;;;;;;;;;4979280;28;20213;-80
2021/03/05 00:28:29;;;;;;;7.95;6.65;;;;;;;;;;4979161;28;20448;-79
2021/03/05 00:30:55;;;;;;;8.65;6.97;;;;;;;;;;4983637;28;20188;-80
2021/03/05 00:33:21;;;;;;;7.75;6.30;;;;;;;;;;4969089;28;20545;-80
2021/03/05 00:35:47;;;;;;;7.60;5.63;;;;;;;;;;4983385;28;20180;-79
2021/03/05 00:38:13;;;;;;;7.57;6.20;;;;;;;;;;4968211;28;20443;-79
2021/03/05 00:40:39;;;;;;;6.97;5.95;;;;;;;;;;4968064;28;20188;-80
2021/03/05 00:43:05;;;;;;;8.13;7.38;;;;;;;;;;4981822;28;20297;-80
2021/03/05 00:45:31;;;;;;;8.27;6.80;;;;;;;;;;4967911;28;20177;-78
2021/03/05 00:47:57;;;;;;;7.93;6.00;;;;;;;;;;4964400;29;20237;-79
2021/03/05 00:50:23;;;;;;;10.48;7.25;;;;;;;;;;4948524;29;20447;-80
2021/03/05 00:52:51;;;;;;;8.52;6.55;;;;;;;;;;4948230;29;20655;-80
2021/03/05 00:55:17;;;;;;;7.70;6.07;;;;;;;;;;4948739;29;20262;-80
2021/03/05 00:57:42;;;;;;;8.48;6.97;;;;;;;;;;4948864;29;20201;-80
2021/03/05 01:00:10;;;;;;;10.75;6.60;;;;;;;;;;4949636;29;20190;-79
2021/03/05 01:02:36;;;;;;;8.40;5.43;;;;;;;;;;4962962;29;20668;-79
2021/03/05 01:05:03;;;;;;;7.20;5.78;;;;;;;;;;4948676;29;20193;-81
2021/03/05 01:07:30;;;;;;;7.13;5.65;;;;;;;;;;4947913;29;20225;-81
2021/03/05 01:09:56;;;;;;;7.50;6.10;;;;;;;;;;4963294;29;20208;-80
2021/03/05 01:12:22;;;;;;;7.82;5.00;;;;;;;;;;4964320;29;20196;-80
2021/03/05 01:14:48;;;;;;;7.43;5.55;;;;;;;;;;4948661;29;20186;-78
2021/03/05 01:17:14;;;;;;;6.30;5.18;;;;;;;;;;4962764;29;20205;-81
2021/03/05 01:19:40;;;;;;;4.07;3.72;;;;;;;;;;4963067;29;20220;-79
2021/03/05 01:22:06;;;;;;;6.85;4.75;;;;;;;;;;4961686;28;20196;-80
2021/03/05 01:24:32;;;;;;;5.82;4.40;;;;;;;;;;4963386;29;20178;-78
2021/03/05 01:26:58;;;;;;;4.47;4.10;;;;;;;;;;4948858;29;20264;-79
2021/03/05 01:29:24;;;;;;;4.95;4.45;;;;;;;;;;4948023;29;20197;-81
2021/03/05 01:31:50;;;;;;;7.15;4.65;;;;;;;;;;4947944;29;20545;-79
2021/03/05 01:34:16;;;;;;;5.17;4.47;;;;;;;;;;4948164;29;20189;-80
2021/03/05 01:36:42;;;;;;;6.60;4.63;;;;;;;;;;4947358;29;20820;-80
2021/03/05 01:39:08;;;;;;;4.90;4.10;;;;;;;;;;4949128;29;20181;-81
2021/03/05 01:41:36;;;;;;;5.95;5.32;;;;;;;;;;4962250;28;20208;-80
2021/03/05 01:44:03;;;;;;;6.43;5.38;;;;;;;;;;4947631;29;20213;-80
2021/03/05 01:46:30;;;;;;;5.35;4.80;;;;;;;;;;4963416;28;20557;-80
2021/03/05 01:48:56;;;;;;;5.03;4.30;;;;;;;;;;4968440;28;20191;-81
2021/03/05 01:51:24;;;;;;;5.70;3.90;;;;;;;;;;4969249;28;20186;-79
2021/03/05 01:53:50;;;;;;;7.10;5.05;;;;;;;;;;4986994;28;20176;-80
2021/03/05 01:56:29;;;;;;;7.07;4.68;;;;;;;;;;4986146;28;20191;-80
2021/03/05 01:58:56;;;;;;;7.75;4.45;;;;;;;;;;4985917;28;20191;-79
2021/03/05 02:01:22;;;;;;;5.63;4.13;;;;;;;;;;4966238;28;20194;-79
2021/03/05 02:03:48;;;;;;;4.70;3.95;;;;;;;;;;4968968;28;20246;-80
2021/03/05 02:06:14;;;;;;;6.28;4.65;;;;;;;;;;4986480;28;20175;-81
2021/03/05 02:08:40;;;;;;;7.55;4.63;;;;;;;;;;4986100;28;20203;-80
2021/03/05 02:11:08;;;;;;;5.30;4.80;;;;;;;;;;4966015;28;20183;-80
2021/03/05 02:13:34;;;;;;;4.40;4.00;;;;;;;;;;4985751;28;20459;-79
2021/03/05 02:16:02;;;;;;;5.60;5.03;;;;;;;;;;4986162;28;20215;-79
2021/03/05 02:18:34;;;;;;;5.82;4.03;;;;;;;;;;4985497;28;20184;-79
2021/03/05 02:21:00;;;;;;;5.30;4.38;;;;;;;;;;4986100;28;20180;-79
2021/03/05 02:23:46;;;;;;;5.27;4.40;;;;;;;;;;4985440;28;20472;-78
2021/03/05 02:26:31;;;;;;;6.45;4.95;;;;;;;;;;4925192;29;20445;-80
2021/03/05 02:29:03;;;;;;;5.30;4.30;;;;;;;;;;4922812;29;20201;-80
2021/03/05 02:31:47;;;;;;;5.15;4.55;;;;;;;;;;4925334;29;20209;-79
2021/03/05 02:34:15;;;;;;;8.48;4.95;;;;;;;;;;4924814;29;20205;-78
2021/03/05 02:36:53;;;;;;;7.68;5.32;;;;;;;;;;4925469;29;20583;-81
2021/03/05 02:39:18;;;;;;;5.75;4.22;;;;;;;;;;4922638;29;20181;-79
2021/03/05 02:41:48;;;;;;;6.20;4.90;;;;;;;;;;4925173;29;20212;-79
2021/03/05 02:44:19;;;;;;;6.28;4.20;;;;;;;;;;4925071;29;20473;-80
2021/03/05 02:46:45;;;;;;;5.55;4.68;;;;;;;;;;4924628;29;20237;-79
2021/03/05 02:49:13;;;;;;;6.85;4.35;;;;;;;;;;4925040;29;20274;-79
2021/03/05 02:51:40;;;;;;;6.90;4.50;;;;;;;;;;4924670;29;20186;-79
2021/03/05 02:54:07;;;;;;;7.50;4.82;;;;;;;;;;4926434;29;20182;-79
2021/03/05 02:56:33;;;;;;;5.82;5.32;;;;;;;;;;4925171;29;20206;-79
2021/03/05 02:59:01;;;;;;;4.57;4.18;;;;;;;;;;4924970;29;20213;-79
2021/03/05 03:01:27;;;;;;;5.63;4.32;;;;;;;;;;4925054;29;20594;-81
2021/03/05 03:03:55;;;;;;;6.15;4.40;;;;;;;;;;4959406;28;20243;-79
2021/03/05 03:06:22;;;;;;;4.75;4.20;;;;;;;;;;4967983;28;20175;-80
2021/03/05 03:08:48;;;;;;;5.70;4.40;;;;;;;;;;4984774;28;20211;-80
2021/03/05 03:11:15;;;;;;;5.10;4.60;;;;;;;;;;4985061;28;20184;-79
2021/03/05 03:13:41;;;;;;;6.72;4.20;;;;;;;;;;4964409;28;20269;-79
2021/03/05 03:16:08;;;;;;;5.80;5.13;;;;;;;;;;4984086;28;20215;-79
2021/03/05 03:18:35;;;;;;;5.55;5.00;;;;;;;;;;4967686;28;20176;-79
2021/03/05 03:21:02;;;;;;;6.38;5.18;;;;;;;;;;4982469;28;20180;-80
2021/03/05 03:23:28;;;;;;;7.60;4.57;;;;;;;;;;4984092;28;20204;-79
2021/03/05 03:25:54;;;;;;;5.45;3.85;;;;;;;;;;4984687;28;20187;-80
2021/03/05 03:28:20;;;;;;;5.60;4.15;;;;;;;;;;4984020;28;20216;-80
2021/03/05 03:30:47;;;;;;;5.97;4.65;;;;;;;;;;4966814;28;20211;-80
2021/03/05 03:33:13;;;;;;;5.32;4.80;;;;;;;;;;4985395;28;20548;-80
2021/03/05 03:35:39;;;;;;;5.13;3.60;;;;;;;;;;4964654;28;20226;-79
2021/03/05 03:38:08;;;;;;;4.30;3.90;;;;;;;;;;4984388;28;20202;-79
2021/03/05 03:40:35;;;;;;;4.65;4.18;;;;;;;;;;4984367;28;20196;-79
2021/03/05 03:43:01;;;;;;;7.45;4.40;;;;;;;;;;4964752;28;20272;-79
2021/03/05 03:45:30;;;;;;;5.20;4.07;;;;;;;;;;4967003;28;20179;-79
2021/03/05 03:47:57;;;;;;;8.20;5.18;;;;;;;;;;4982698;28;20306;-79
2021/03/05 03:50:31;;;;;;;4.50;3.25;;;;;;;;;;4984698;28;20187;-79
2021/03/05 03:53:16;;;;;;;4.03;3.63;;;;;;;;;;4984316;28;20191;-80
2021/03/05 03:55:42;;;;;;;4.82;4.43;;;;;;;;;;4964745;28;20191;-81
2021/03/05 03:58:09;;;;;;;6.35;4.03;;;;;;;;;;4963411;28;20192;-80
2021/03/05 04:00:38;;;;;;;4.35;3.78;;;;;;;;;;4966644;28;20192;-79
2021/03/05 04:03:05;;;;;;;5.15;4.30;;;;;;;;;;4983248;28;20222;-81
2021/03/05 04:05:32;;;;;;;6.90;3.85;;;;;;;;;;4964188;28;20184;-80
2021/03/05 04:07:58;;;;;;;4.32;3.92;;;;;;;;;;4983953;28;20199;-79
2021/03/05 04:10:24;;;;;;;4.70;3.28;;;;;;;;;;4984295;28;20222;-79
2021/03/05 04:12:51;;;;;;;4.93;4.07;;;;;;;;;;4965834;28;20187;-78
2021/03/05 04:15:18;;;;;;;7.07;3.90;;;;;;;;;;4967472;28;20641;-79
2021/03/05 04:17:45;;;;;;;5.95;3.80;;;;;;;;;;4980949;28;20207;-80
2021/03/05 04:20:13;;;;;;;4.55;4.15;;;;;;;;;;4983899;28;20700;-79
2021/03/05 04:22:40;;;;;;;5.85;3.63;;;;;;;;;;4984101;28;20226;-78
2021/03/05 04:25:06;;;;;;;6.95;4.55;;;;;;;;;;4984599;28;20541;-79
2021/03/05 04:27:32;;;;;;;8.18;4.38;;;;;;;;;;4966648;28;20194;-81
2021/03/05 04:29:58;;;;;;;4.65;4.20;;;;;;;;;;4966729;28;20172;-80
2021/03/05 04:32:25;;;;;;;4.10;3.30;;;;;;;;;;4971237;28;20200;-78
2021/03/05 04:34:51;;;;;;;8.27;4.40;;;;;;;;;;4984044;28;20176;-79
2021/03/05 04:37:17;;;;;;;6.85;4.20;;;;;;;;;;4984298;28;20523;-81
2021/03/05 04:39:43;;;;;;;5.53;3.70;;;;;;;;;;4983747;28;20214;-80
2021/03/05 04:42:09;;;;;;;5.15;3.72;;;;;;;;;;4984934;28;20227;-79
2021/03/05 04:44:35;;;;;;;5.82;3.90;;;;;;;;;;4963415;28;20191;-80
2021/03/05 04:47:01;;;;;;;6.43;3.58;;;;;;;;;;4963857;28;20258;-79
2021/03/05 04:49:27;;;;;;;5.82;3.58;;;;;;;;;;4983436;28;20187;-78
2021/03/05 04:51:53;;;;;;;4.35;3.00;;;;;;;;;;4984065;28;20646;-82
2021/03/05 04:54:19;;;;;;;6.45;2.97;;;;;;;;;;4967573;28;20180;-78
2021/03/05 04:56:45;;;;;;;3.40;2.53;;;;;;;;;;4983884;28;20196;-80
2021/03/05 04:59:11;;;;;;;4.97;2.38;;;;;;;;;;4962651;28;20259;-79
2021/03/05 05:01:37;;;;;;;7.53;2.75;;;;;;;;;;4983648;28;20275;-79
2021/03/05 05:04:03;;;;;;;4.25;2.22;;;;;;;;;;4963144;28;20216;-79
2021/03/05 05:06:29;;;;;;;2.75;1.70;;;;;;;;;;4983937;28;20176;-80
2021/03/05 05:08:55;;;;;;;3.90;2.05;;;;;;;;;;4983751;28;20172;-81
2021/03/05 05:11:21;;;;;;;5.53;2.75;;;;;;;;;;4982010;28;20190;-79
2021/03/05 05:13:47;;;;;;;4.13;1.92;;;;;;;;;;4963341;28;20243;-80
2021/03/05 05:16:13;;;;;;;4.27;2.30;;;;;;;;;;4986151;28;20199;-78
2021/03/05 05:18:39;;;;;;;8.70;2.50;;;;;;;;;;4986906;28;20423;-79
2021/03/05 05:21:05;;;;;;;7.70;1.90;;;;;;;;;;4987709;28;20235;-80
2021/03/05 05:23:31;;;;;;;4.28;2.08;;;;;;;;;;4966798;28;20509;-80
2021/03/05 05:25:57;;;;;;;5.88;3.00;;;;;;;;;;4966767;28;20192;-79
2021/03/05 05:28:22;;;;;;;7.78;3.40;;;;;;;;;;4985839;28;20195;-79
2021/03/05 05:30:48;;;;;;;4.33;2.07;;;;;;;;;;4986829;28;20199;-79
2021/03/05 05:33:16;;;;;;;4.95;1.90;;;;;;;;;;4987864;28;20429;-80
2021/03/05 05:35:42;;;;;;;4.25;2.38;;;;;;;;;;4986767;28;20183;-80
2021/03/05 05:38:09;;;;;;;3.53;1.97;;;;;;;;;;4986495;28;20315;-79
2021/03/05 05:40:35;;;;;;;2.08;1.88;;;;;;;;;;4966517;28;20443;-79
2021/03/05 05:43:01;;;;;;;3.20;1.95;;;;;;;;;;4965666;28;20212;-78
2021/03/05 05:45:27;;;;;;;4.40;1.75;;;;;;;;;;4987028;28;20175;-79
2021/03/05 05:47:54;;;;;;;6.15;2.05;;;;;;;;;;4984116;28;20299;-80
2021/03/05 05:50:22;;;;;;;7.15;2.45;;;;;;;;;;4986165;28;20251;-81
2021/03/05 05:52:50;;;;;;;3.20;1.80;;;;;;;;;;4985799;28;20218;-79
2021/03/05 05:55:17;;;;;;;2.97;1.80;;;;;;;;;;4986422;28;20180;-79
2021/03/05 05:57:43;;;;;;;2.90;1.40;;;;;;;;;;4968066;28;20188;-81
2021/03/05 06:00:10;;;;;;;7.72;2.05;;;;;;;;;;4986542;28;20199;-80
2021/03/05 06:02:36;;;;;;;5.82;1.80;;;;;;;;;;4986667;28;20218;-81
2021/03/05 06:05:03;;;;;;;3.05;1.52;;;;;;;;;;4986001;28;20184;-83
2021/03/05 06:07:31;;;;;;;3.35;1.30;;;;;;;;;;4986345;28;20184;-81
2021/03/05 06:09:57;;;;;;;4.75;1.30;;;;;;;;;;4967687;28;20195;-80
2021/03/05 06:12:23;;;;;;;4.13;1.52;;;;;;;;;;4986456;28;20866;-82
2021/03/05 06:14:49;;;;;;;3.35;1.58;;;;;;;;;;4968915;28;20183;-80
2021/03/05 06:17:15;;;;;;;5.75;1.65;;;;;;;;;;4986073;28;20184;-80
2021/03/05 06:19:41;;;;;;;6.05;2.70;;;;;;;;;;4965202;28;20538;-80
2021/03/05 06:22:20;;;;;;;4.85;1.45;;;;;;;;;;4985606;28;20187;-80
2021/03/05 06:24:46;;;;;;;2.78;1.90;;;;;;;;;;4985575;28;20203;-80
2021/03/05 06:27:13;;;;;;;4.90;1.85;;;;;;;;;;4985502;28;20637;-81
2021/03/05 06:29:43;;;;;;;5.28;1.85;;;;;;;;;;4965030;28;20219;-80
2021/03/05 06:32:10;;;;;;;2.60;1.33;;;;;;;;;;4985965;28;20222;-80
2021/03/05 06:34:45;;;;;;;4.20;1.70;;;;;;;;;;4965830;28;20207;-79
2021/03/05 06:37:12;;;;;;;9.55;2.30;;;;;;;;;;4965912;28;20541;-80
2021/03/05 06:39:38;;;;;;;4.20;1.85;;;;;;;;;;4967498;28;20203;-80
2021/03/05 06:42:11;;;;;;;3.88;1.75;;;;;;;;;;4985611;28;20188;-80
2021/03/05 06:44:38;;;;;;;6.35;2.28;;;;;;;;;;4985356;28;20215;-78
2021/03/05 06:47:12;;;;;;;5.13;2.97;;;;;;;;;;4985491;28;20242;-79
2021/03/05 06:49:38;;;;;;;11.23;2.33;;;;;;;;;;4964814;28;20567;-80
2021/03/05 06:52:04;;;;;;;8.90;2.20;;;;;;;;;;4984803;28;20219;-80
2021/03/05 06:54:32;;;;;;;10.55;2.65;;;;;;;;;;4985838;28;20203;-80
2021/03/05 06:56:58;;;;;;;2.85;2.17;;;;;;;;;;4984628;28;20172;-80
2021/03/05 06:59:24;;;;;;;6.07;2.28;;;;;;;;;;4984745;28;20259;-80
2021/03/05 07:02:00;;;;;;;4.72;2.03;;;;;;;;;;4985331;28;20192;-79
2021/03/05 07:04:26;;;;;;;5.90;2.75;;;;;;;;;;4985208;28;20207;-80
2021/03/05 07:07:05;;;;;;;4.33;2.30;;;;;;;;;;4985424;28;20199;-80
2021/03/05 07:09:31;;;;;;;10.10;2.50;;;;;;;;;;4982321;28;20407;-80
2021/03/05 07:11:57;;;;;;;5.28;2.15;;;;;;;;;;4968161;28;20186;-80
2021/03/05 07:14:28;;;;;;;7.85;2.13;;;;;;;;;;4972375;28;20226;-82
2021/03/05 07:16:55;;;;;;;4.60;2.05;;;;;;;;;;4984269;28;20183;-80
2021/03/05 07:19:22;;;;;;;10.98;1.98;;;;;;;;;;4984373;28;20175;-81
2021/03/05 07:21:49;;;;;;;9.85;1.98;;;;;;;;;;4984756;28;20196;-83
2021/03/05 07:24:16;;;;;;;4.30;2.10;;;;;;;;;;4983594;28;20235;-80
2021/03/05 07:26:43;;;;;;;5.57;2.50;;;;;;;;;;4984665;28;20188;-80
2021/03/05 07:29:16;;;;;;;5.68;2.22;;;;;;;;;;4964105;28;20199;-83
2021/03/05 07:31:43;;;;;;;5.00;2.40;;;;;;;;;;4983967;28;20184;-81
2021/03/05 07:34:11;;;;;;;6.10;2.17;;;;;;;;;;4983381;28;20187;-81
2021/03/05 07:36:43;;;;;;;6.00;2.60;;;;;;;;;;4983237;28;20191;-79
2021/03/05 07:39:09;;;;;;;8.18;2.38;;;;;;;;;;4984702;28;20262;-80
2021/03/05 07:41:35;;;;;;;6.97;3.03;;;;;;;;;;4966349;28;20223;-79
2021/03/05 07:44:02;;;;;;;9.88;3.78;;;;;;;;;;4984072;28;20230;-80
2021/03/05 07:46:28;;;;;;;5.03;2.97;;;;;;;;;;4964007;28;20688;-80
2021/03/05 07:48:54;;;;;;;11.18;3.00;;;;;;;;;;4984475;28;20191;-81
2021/03/05 07:51:21;;;;;;;5.45;2.88;;;;;;;;;;4967300;28;20180;-80
2021/03/05 07:53:50;;;;;;;7.13;2.80;;;;;;;;;;4963735;28;20195;-81
2021/03/05 07:56:36;;;;;;;4.70;2.40;;;;;;;;;;4964207;28;20269;-81
2021/03/05 07:59:02;;;;;;;6.80;3.10;;;;;;;;;;4963712;28;20704;-81
2021/03/05 08:01:59;;;;;;;4.13;2.80;;;;;;;;;;4963570;28;20232;-83
2021/03/05 08:04:45;;;;;;;3.30;2.42;;;;;;;;;;4964305;28;20226;-81
2021/03/05 08:07:11;;;;;;;10.98;2.60;;;;;;;;;;4980251;28;20191;-81
2021/03/05 08:09:38;;;;;;;7.32;3.08;;;;;;;;;;4982085;28;20180;-79
2021/03/05 08:12:25;;;;;;;6.60;2.47;;;;;;;;;;4987346;28;20741;-82
2021/03/05 08:14:51;;;;;;;7.45;2.60;;;;;;;;;;4982356;28;20190;-80
2021/03/05 08:17:30;;;;;;;6.95;2.53;;;;;;;;;;4982598;28;20274;-79
2021/03/05 08:19:57;;;;;;;10.18;2.50;;;;;;;;;;4990161;28;20193;-79
2021/03/05 08:22:23;;;;;;;6.43;2.80;;;;;;;;;;4987818;28;20195;-81
2021/03/05 08:24:49;;;;;;;6.20;3.33;;;;;;;;;;4991953;28;20187;-82
2021/03/05 08:27:15;;;;;;;5.38;2.90;;;;;;;;;;4992526;28;20199;-80
2021/03/05 08:29:53;;;;;;;5.55;2.45;;;;;;;;;;4988247;28;20192;-80
2021/03/05 08:32:32;;;;;;;4.75;2.17;;;;;;;;;;4980664;28;20183;-79
2021/03/05 08:34:59;;;;;;;6.95;3.50;;;;;;;;;;4972196;28;20183;-77
2021/03/05 08:37:28;;;;;;;5.05;2.92;;;;;;;;;;4985387;28;20740;-80
2021/03/05 08:40:16;;;;;;;7.47;3.05;;;;;;;;;;4965694;28;20207;-80
2021/03/05 08:42:43;;;;;;;6.38;3.10;;;;;;;;;;4965896;28;20242;-80
2021/03/05 08:45:19;;;;;;;6.32;3.20;;;;;;;;;;4982936;28;20184;-80
2021/03/05 08:47:46;;;;;;;5.95;5.00;;;;;;;;;;4982864;28;20234;-80
2021/03/05 08:50:13;;;;;;;4.00;3.60;;;;;;;;;;4983920;28;20183;-82
2021/03/05 08:52:40;;;;;;;5.75;3.88;;;;;;;;;;4983413;28;20191;-79
2021/03/05 08:55:07;;;;;;;5.20;3.40;;;;;;;;;;4987689;28;20192;-81
2021/03/05 08:57:42;;;;;;;4.88;3.55;;;;;;;;;;4969954;28;20183;-77
2021/03/05 09:00:09;;;;;;;9.80;4.35;;;;;;;;;;4986545;28;20218;-80
2021/03/05 09:02:36;;;;;;;10.20;4.10;;;;;;;;;;4966428;28;20698;-81
2021/03/05 09:05:01;;;;;;;10.02;4.68;;;;;;;;;;4985845;28;20210;-86
2021/03/05 09:07:29;;;;;;;8.90;4.85;;;;;;;;;;4966475;28;20282;-80
2021/03/05 09:09:55;;;;;;;6.03;5.05;;;;;;;;;;4968464;28;20180;-79
2021/03/05 09:12:22;;;;;;;11.30;5.80;;;;;;;;;;4970435;28;20545;-79
2021/03/05 09:14:57;;;;;;;12.02;5.18;;;;;;;;;;4986253;28;20203;-80
2021/03/05 09:17:24;;;;;;;11.38;6.13;;;;;;;;;;4986543;28;20282;-82
2021/03/05 09:19:50;;;;;;;10.10;6.80;;;;;;;;;;4985880;28;20339;-80
2021/03/05 09:22:26;;;;;;;11.52;5.00;;;;;;;;;;4986820;28;20188;-79
2021/03/05 09:24:57;;;;;;;6.57;4.95;;;;;;;;;;4970437;28;20190;-79
2021/03/05 09:27:25;;;;;;;14.75;5.93;;;;;;;;;;4965890;28;20198;-80
2021/03/05 09:29:51;;;;;;;16.55;6.15;;;;;;;;;;4983207;28;20243;-80
2021/03/05 09:32:17;;;;;;;10.48;5.72;;;;;;;;;;4986295;28;20194;-77
2021/03/05 09:34:54;;;;;;;8.10;5.47;;;;;;;;;;4986425;28;20215;-81
2021/03/05 09:37:20;;;;;;;10.68;6.60;;;;;;;;;;4966260;28;20183;-80
2021/03/05 09:39:50;;;;;;;9.00;6.00;;;;;;;;;;4986257;28;20180;-80
2021/03/05 09:42:16;;;;;;;8.18;5.68;;;;;;;;;;4985081;28;20180;-79
2021/03/05 09:44:43;;;;;;;8.55;5.00;;;;;;;;;;4985555;28;20195;-79
2021/03/05 09:47:09;;;;;;;12.68;6.40;;;;;;;;;;4986263;28;20215;-80
2021/03/05 09:49:35;;;;;;;8.48;5.47;;;;;;;;;;4965491;28;20263;-81
2021/03/05 09:52:01;;;;;;;9.80;5.90;;;;;;;;;;4986321;28;20180;-80
2021/03/05 09:54:37;;;;;;;8.77;5.72;;;;;;;;;;4986508;28;20184;-82
2021/03/05 09:57:04;;;;;;;8.52;6.10;;;;;;;;;;4983396;28;20187;-82
2021/03/05 09:59:40;;;;;;;9.75;6.85;;;;;;;;;;4984696;28;20295;-81
2021/03/05 10:02:06;;;;;;;13.13;6.68;;;;;;;;;;4984523;28;20672;-81
2021/03/05 10:04:40;;;;;;;13.82;7.05;;;;;;;;;;4984656;28;20203;-78
2021/03/05 10:07:06;;;;;;;12.27;7.05;;;;;;;;;;4984815;28;20278;-80
2021/03/05 10:09:32;;;;;;;12.93;8.00;;;;;;;;;;4985058;28;20179;-81
2021/03/05 10:11:58;;;;;;;15.10;6.97;;;;;;;;;;4983209;28;20193;-78
2021/03/05 10:14:25;;;;;;;13.30;6.82;;;;;;;;;;4984730;28;20474;-78
2021/03/05 10:16:51;;;;;;;10.98;7.20;;;;;;;;;;4982572;28;20518;-81
2021/03/05 10:19:18;;;;;;;13.40;6.88;;;;;;;;;;4982748;28;20191;-80
2021/03/05 10:22:02;;;;;;;11.43;5.90;;;;;;;;;;4985401;28;20188;-85
2021/03/05 10:24:29;;;;;;;12.18;7.05;;;;;;;;;;4983330;28;20625;-81
2021/03/05 10:30:03;;;;;;;11.70;5.20;;;;;;;;;;4957326;29;20203;-79
2021/03/05 10:32:43;;;;;;;8.77;5.25;;;;;;;;;;4950507;29;20208;-81
2021/03/05 10:35:11;;;;;;;7.07;4.95;;;;;;;;;;4948878;29;20196;-82
2021/03/05 10:37:38;;;;;;;8.95;4.78;;;;;;;;;;4949363;29;20192;-83
2021/03/05 10:40:06;;;;;;;10.15;5.60;;;;;;;;;;4944856;29;20215;-82
2021/03/05 10:42:32;;;;;;;9.25;4.57;;;;;;;;;;4960045;29;20267;-77
2021/03/05 10:44:58;;;;;;;6.90;4.10;;;;;;;;;;4949236;29;20222;-78
2021/03/05 10:47:24;;;;;;;6.63;4.35;;;;;;;;;;4929234;29;20690;-82
2021/03/05 10:49:51;;;;;;;10.63;4.57;;;;;;;;;;4948717;29;20639;-78
2021/03/05 10:52:18;;;;;;;5.85;4.20;;;;;;;;;;4928191;29;20233;-79
2021/03/05 10:54:45;;;;;;;6.57;4.50;;;;;;;;;;4945400;29;20194;-78
2021/03/05 10:57:14;;;;;;;8.90;5.32;;;;;;;;;;4933564;29;20181;-80
2021/03/05 10:59:41;;;;;;;8.48;4.55;;;;;;;;;;4929582;29;20200;-80
2021/03/05 11:02:08;;;;;;;7.65;3.90;;;;;;;;;;4929102;29;20197;-79
2021/03/05 11:04:34;;;;;;;6.20;4.15;;;;;;;;;;4951954;28;20784;-82
2021/03/05 11:07:01;;;;;;;5.43;4.13;;;;;;;;;;4985595;28;20183;-82
2021/03/05 11:09:28;;;;;;;6.03;4.28;;;;;;;;;;4968067;28;20171;-83
2021/03/05 11:11:54;;;;;;;7.65;4.10;;;;;;;;;;4985176;28;20231;-81
2021/03/05 11:14:21;;;;;;;7.75;4.90;;;;;;;;;;4964128;28;20230;-79
2021/03/05 11:16:47;;;;;;;6.03;4.15;;;;;;;;;;4964187;28;20184;-82
2021/03/05 11:19:13;;;;;;;9.30;5.03;;;;;;;;;;4984916;28;20198;-86
2021/03/05 11:21:39;;;;;;;7.22;4.05;;;;;;;;;;4984577;28;20194;-81
2021/03/05 11:24:06;;;;;;;5.95;3.80;;;;;;;;;;4984341;28;20345;-84
2021/03/05 11:26:32;;;;;;;11.07;4.30;;;;;;;;;;4971118;28;20183;-80
2021/03/05 11:28:58;;;;;;;8.90;4.38;;;;;;;;;;4983272;28;20199;-79
2021/03/05 11:31:24;;;;;;;7.32;4.47;;;;;;;;;;4985549;28;20195;-82
2021/03/05 11:33:51;;;;;;;6.15;4.60;;;;;;;;;;4984672;28;20215;-81
2021/03/05 11:36:18;;;;;;;5.38;4.40;;;;;;;;;;4984860;28;20176;-81
2021/03/05 11:38:45;;;;;;;15.57;4.68;;;;;;;;;;4984354;28;20562;-81
2021/03/05 11:41:11;;;;;;;5.07;3.95;;;;;;;;;;4964050;28;20195;-81
2021/03/05 11:43:41;;;;;;;4.85;4.00;;;;;;;;;;4983438;28;20210;-82
2021/03/05 11:46:07;;;;;;;8.38;4.30;;;;;;;;;;4964762;28;20196;-81
2021/03/05 11:48:33;;;;;;;6.22;3.88;;;;;;;;;;4967074;28;20219;-79
2021/03/05 11:50:59;;;;;;;7.65;3.58;;;;;;;;;;4967533;28;20172;-80
2021/03/05 11:53:25;;;;;;;7.22;4.65;;;;;;;;;;4984323;28;20557;-79
2021/03/05 11:55:51;;;;;;;6.18;3.60;;;;;;;;;;4984350;28;20202;-80
2021/03/05 11:58:17;;;;;;;7.05;3.92;;;;;;;;;;4983888;28;20202;-79
2021/03/05 12:00:43;;;;;;;8.67;4.13;;;;;;;;;;4983728;28;20192;-81
2021/03/05 12:03:09;;;;;;;9.02;3.33;;;;;;;;;;4984848;28;20509;-80
2021/03/05 12:05:35;;;;;;;4.72;3.97;;;;;;;;;;4982946;28;20190;-81
2021/03/05 12:08:01;;;;;;;5.70;4.70;;;;;;;;;;4984324;28;20187;-80
2021/03/05 12:10:27;;;;;;;9.53;4.77;;;;;;;;;;4963414;28;20505;-79
2021/03/05 12:12:53;;;;;;;7.50;4.28;;;;;;;;;;4965471;28;20816;-79
2021/03/05 12:15:19;;;;;;;5.85;3.80;;;;;;;;;;4967299;28;20248;-78
2021/03/05 12:17:45;;;;;;;6.47;3.60;;;;;;;;;;4983517;28;20200;-80
2021/03/05 12:20:12;;;;;;;10.82;5.13;;;;;;;;;;4968932;28;20180;-80
2021/03/05 12:22:38;;;;;;;11.90;5.65;;;;;;;;;;4985260;28;20336;-81
2021/03/05 12:25:04;;;;;;;10.52;5.35;;;;;;;;;;4985922;28;20218;-79
2021/03/05 12:27:31;;;;;;;5.07;4.13;;;;;;;;;;4987188;28;20195;-81
2021/03/05 12:29:57;;;;;;;6.53;4.63;;;;;;;;;;4988299;28;20763;-80
2021/03/05 12:32:23;;;;;;;6.87;4.90;;;;;;;;;;4987150;28;20199;-81
2021/03/05 12:34:49;;;;;;;8.33;4.70;;;;;;;;;;4987652;28;20439;-83
2021/03/05 12:37:15;;;;;;;5.60;4.40;;;;;;;;;;4966492;28;20716;-83
2021/03/05 12:39:41;;;;;;;5.68;4.53;;;;;;;;;;4993039;28;20468;-82
2021/03/05 12:42:08;;;;;;;8.13;5.20;;;;;;;;;;4974593;28;20176;-81
2021/03/05 12:44:34;;;;;;;7.35;5.00;;;;;;;;;;4995538;28;20226;-82
2021/03/05 12:47:00;;;;;;;6.25;5.65;;;;;;;;;;4992531;28;20246;-79
2021/03/05 12:49:26;;;;;;;6.93;5.28;;;;;;;;;;4991607;28;20274;-81
2021/03/05 12:51:52;;;;;;;7.35;5.80;;;;;;;;;;4993191;28;20195;-79
2021/03/05 12:54:18;;;;;;;12.10;5.85;;;;;;;;;;4996681;28;20360;-80
2021/03/05 12:56:44;;;;;;;9.43;6.70;;;;;;;;;;4988915;28;20199;-80
2021/03/05 12:59:10;;;;;;;8.35;6.75;;;;;;;;;;4990483;28;20196;-80
2021/03/05 13:01:36;;;;;;;9.43;6.70;;;;;;;;;;4965816;28;20215;-81
2021/03/05 13:04:04;;;;;;;11.57;6.25;;;;;;;;;;4967324;28;20215;-79
2021/03/05 13:06:30;;;;;;;9.40;6.05;;;;;;;;;;4993060;28;20229;-81
2021/03/05 13:08:56;;;;;;;12.00;6.97;;;;;;;;;;4987998;28;20231;-81
2021/03/05 13:11:22;;;;;;;11.25;6.75;;;;;;;;;;4990082;28;20665;-80
2021/03/05 13:13:48;;;;;;;10.50;7.05;;;;;;;;;;4989664;28;20191;-82
2021/03/05 13:16:16;;;;;;;8.68;7.43;;;;;;;;;;4984727;28;20239;-81
2021/03/05 13:18:42;;;;;;;9.15;6.75;;;;;;;;;;4969131;28;20199;-81
2021/03/05 13:21:08;;;;;;;10.13;6.82;;;;;;;;;;4987939;28;20187;-82
2021/03/05 13:23:34;;;;;;;9.25;6.28;;;;;;;;;;4986259;28;20327;-79
2021/03/05 13:26:05;;;;;;;7.80;5.82;;;;;;;;;;4966509;28;20191;-79
2021/03/05 13:28:31;;;;;;;11.23;6.80;;;;;;;;;;4966861;28;20176;-83
2021/03/05 13:30:57;;;;;;;9.10;7.80;;;;;;;;;;4968913;28;20186;-81
2021/03/05 13:33:23;;;;;;;9.88;6.55;;;;;;;;;;4969582;28;20439;-79
2021/03/05 13:35:49;;;;;;;9.07;5.90;;;;;;;;;;4986612;28;20183;-80
2021/03/05 13:38:15;;;;;;;9.03;5.63;;;;;;;;;;4967094;28;20187;-81
2021/03/05 13:40:41;;;;;;;11.50;7.05;;;;;;;;;;4966217;28;20450;-81
2021/03/05 13:43:07;;;;;;;7.70;6.17;;;;;;;;;;4985955;28;20207;-80
2021/03/05 13:45:33;;;;;;;10.15;5.95;;;;;;;;;;4986615;28;20429;-80
2021/03/05 13:47:59;;;;;;;8.10;6.10;;;;;;;;;;4987222;28;20223;-80
2021/03/05 13:50:25;;;;;;;17.70;6.85;;;;;;;;;;4966402;28;20266;-79
2021/03/05 13:52:51;;;;;;;8.48;5.82;;;;;;;;;;4967165;28;20191;-81
2021/03/05 13:55:17;;;;;;;8.67;7.20;;;;;;;;;;4985268;28;20252;-80
2021/03/05 13:57:43;;;;;;;9.65;6.53;;;;;;;;;;4983910;28;20456;-80
2021/03/05 14:00:09;;;;;;;14.10;7.50;;;;;;;;;;4967433;28;20311;-79
2021/03/05 14:02:35;;;;;;;9.88;7.32;;;;;;;;;;4985491;28;20183;-81
2021/03/05 14:05:01;;;;;;;9.03;6.70;;;;;;;;;;4966116;28;20308;-80
2021/03/05 14:07:27;;;;;;;10.10;6.28;;;;;;;;;;4966352;28;20439;-80
2021/03/05 14:09:53;;;;;;;10.45;7.30;;;;;;;;;;4968327;28;20187;-80
2021/03/05 14:12:19;;;;;;;11.93;7.00;;;;;;;;;;4989543;28;20294;-80
2021/03/05 14:14:47;;;;;;;9.05;7.07;;;;;;;;;;4986049;28;20195;-79
2021/03/05 14:17:13;;;;;;;8.52;6.82;;;;;;;;;;4986091;28;20325;-83
2021/03/05 14:19:39;;;;;;;12.73;6.80;;;;;;;;;;4984143;28;20257;-81
2021/03/05 14:22:05;;;;;;;10.40;7.30;;;;;;;;;;4985759;28;20439;-80
2021/03/05 14:24:31;;;;;;;8.90;6.40;;;;;;;;;;4967950;28;20463;-79
2021/03/05 14:26:57;;;;;;;9.02;6.85;;;;;;;;;;4968715;28;20176;-81
2021/03/05 14:29:23;;;;;;;10.55;7.55;;;;;;;;;;4985340;28;20180;-82
2021/03/05 14:31:49;;;;;;;8.50;7.22;;;;;;;;;;4985674;28;20207;-83
2021/03/05 14:34:15;;;;;;;11.40;6.63;;;;;;;;;;4984086;28;20629;-82
2021/03/05 14:36:41;;;;;;;8.17;6.90;;;;;;;;;;4984415;28;20180;-80
2021/03/05 14:39:08;;;;;;;8.15;5.60;;;;;;;;;;4985950;28;20877;-81
2021/03/05 14:41:37;;;;;;;9.05;6.68;;;;;;;;;;4967156;28;21035;-81
2021/03/05 14:44:03;;;;;;;10.00;7.30;;;;;;;;;;4965131;28;20237;-81
2021/03/05 14:46:29;;;;;;;10.23;6.70;;;;;;;;;;4991333;28;20226;-82